createdAt,value
2018-10-17T00:01:10.663Z,98117.00
2018-10-17T00:03:42.367Z,98112.00
2018-10-17T00:06:14.228Z,98116.00
2018-10-17T00:08:45.992Z,98117.00
2018-10-17T00:11:17.845Z,98113.00
2018-10-17T00:13:49.582Z,98116.00
2018-10-17T00:16:21.340Z,98112.00
2018-10-17T00:18:53.045Z,98111.00
2018-10-17T00:21:24.883Z,98113.00
2018-10-17T00:23:56.620Z,98118.00
2018-10-17T00:26:28.508Z,98108.00
2018-10-17T00:29:00.288Z,98106.00
2018-10-17T00:31:31.998Z,98106.00
2018-10-17T00:34:03.884Z,98099.00
2018-10-17T00:36:35.635Z,98103.00
2018-10-17T00:39:10.299Z,98102.00
2018-10-17T00:41:42.211Z,98104.00
2018-10-17T00:44:13.901Z,98104.00
2018-10-17T00:46:45.564Z,98099.00
2018-10-17T00:49:17.515Z,98103.00
2018-10-17T00:51:49.114Z,98103.00
2018-10-17T00:54:20.924Z,98098.00
2018-10-17T00:56:52.578Z,98099.00
2018-10-17T00:59:24.300Z,98101.00
2018-10-17T01:01:55.994Z,98112.00
2018-10-17T01:04:27.718Z,98113.00
2018-10-17T01:06:59.657Z,98111.00
2018-10-17T01:09:31.479Z,98106.00
2018-10-17T01:12:03.241Z,98105.00
2018-10-17T01:14:34.881Z,98101.00
2018-10-17T01:17:06.951Z,98103.00
2018-10-17T01:19:38.936Z,98103.00
2018-10-17T01:22:10.568Z,98102.00
2018-10-17T01:24:42.358Z,98105.00
2018-10-17T01:27:14.240Z,98111.00
2018-10-17T01:29:46.075Z,98107.00
2018-10-17T01:32:17.711Z,98112.00
2018-10-17T01:34:49.480Z,98113.00
2018-10-17T01:37:21.242Z,98107.00
2018-10-17T01:39:53.081Z,98109.00
2018-10-17T01:42:24.991Z,98119.00
2018-10-17T01:44:56.799Z,98113.00
2018-10-17T01:47:28.531Z,98113.00
2018-10-17T01:50:00.313Z,98111.00
2018-10-17T01:52:31.970Z,98112.00
2018-10-17T01:55:03.750Z,98117.00
2018-10-17T01:57:35.515Z,98115.00
2018-10-17T02:00:07.499Z,98115.00
2018-10-17T02:02:39.209Z,98121.00
2018-10-17T02:05:11.168Z,98122.00
2018-10-17T02:07:42.926Z,98124.00
2018-10-17T02:10:14.587Z,98124.00
2018-10-17T02:12:46.204Z,98129.00
2018-10-17T02:15:18.035Z,98131.00
2018-10-17T02:17:49.669Z,98128.00
2018-10-17T02:20:21.475Z,98130.00
2018-10-17T02:22:53.317Z,98130.00
2018-10-17T02:25:25.057Z,98123.00
2018-10-17T02:27:56.827Z,98127.00
2018-10-17T02:30:28.554Z,98126.00
2018-10-17T02:33:00.210Z,98123.00
2018-10-17T02:35:32.064Z,98124.00
2018-10-17T02:38:03.936Z,98125.00
2018-10-17T02:40:35.898Z,98119.00
2018-10-17T02:43:07.762Z,98124.00
2018-10-17T02:45:39.539Z,98121.00
2018-10-17T02:48:11.398Z,98120.00
2018-10-17T02:50:43.239Z,98122.00
2018-10-17T02:53:15.130Z,98115.00
2018-10-17T02:55:46.882Z,98115.00
2018-10-17T02:58:18.625Z,98118.00
2018-10-17T03:00:50.403Z,98113.00
2018-10-17T03:03:22.153Z,98114.00
2018-10-17T03:05:53.892Z,98114.00
2018-10-17T03:08:25.564Z,98113.00
2018-10-17T03:10:57.661Z,98118.00
2018-10-17T03:13:29.472Z,98131.00
2018-10-17T03:16:01.142Z,98123.00
2018-10-17T03:18:33.013Z,98123.00
2018-10-17T03:21:04.821Z,98126.00
2018-10-17T03:23:36.609Z,98126.00
2018-10-17T03:26:08.511Z,98126.00
2018-10-17T03:28:40.162Z,98122.00
2018-10-17T03:31:12.043Z,98127.00
2018-10-17T03:33:43.666Z,98124.00
2018-10-17T03:36:15.411Z,98128.00
2018-10-17T03:38:47.408Z,98138.00
2018-10-17T03:41:19.382Z,98131.00
2018-10-17T03:43:51.214Z,98126.00
2018-10-17T03:46:22.974Z,98122.00
2018-10-17T03:48:54.626Z,98129.00
2018-10-17T03:51:26.291Z,98131.00
2018-10-17T03:53:58.234Z,98129.00
2018-10-17T03:56:30.305Z,98132.00
2018-10-17T03:59:02.122Z,98135.00
2018-10-17T04:01:33.948Z,98134.00
2018-10-17T04:04:05.920Z,98134.00
2018-10-17T04:06:37.544Z,98141.00
2018-10-17T04:09:10.366Z,98141.00
2018-10-17T04:11:42.213Z,98144.00
2018-10-17T04:14:13.869Z,98144.00
2018-10-17T04:16:45.635Z,98141.00
2018-10-17T04:19:17.307Z,98150.00
2018-10-17T04:21:49.016Z,98146.00
2018-10-17T04:24:20.789Z,98145.00
2018-10-17T04:26:52.654Z,98141.00
2018-10-17T04:29:24.285Z,98141.00
2018-10-17T04:31:56.145Z,98144.00
2018-10-17T04:34:27.761Z,98141.00
2018-10-17T04:36:59.522Z,98141.00
2018-10-17T04:39:31.260Z,98140.00
2018-10-17T04:42:02.910Z,98142.00
2018-10-17T04:44:34.677Z,98142.00
2018-10-17T04:47:06.644Z,98142.00
2018-10-17T04:49:38.446Z,98143.00
2018-10-17T04:52:10.133Z,98146.00
2018-10-17T04:54:42.004Z,98150.00
2018-10-17T04:57:13.777Z,98146.00
2018-10-17T04:59:45.406Z,98149.00
2018-10-17T05:02:17.277Z,98154.00
2018-10-17T05:04:49.179Z,98149.00
2018-10-17T05:07:21.046Z,98153.00
2018-10-17T05:09:52.882Z,98152.00
2018-10-17T05:12:24.522Z,98153.00
2018-10-17T05:14:56.420Z,98154.00
2018-10-17T05:17:28.130Z,98152.00
2018-10-17T05:19:59.912Z,98155.00
2018-10-17T05:22:31.639Z,98160.00
2018-10-17T05:25:03.532Z,98159.00
2018-10-17T05:27:35.312Z,98163.00
2018-10-17T05:30:07.666Z,98159.00
2018-10-17T05:32:39.310Z,98164.00
2018-10-17T05:35:11.276Z,98162.00
2018-10-17T05:37:43.007Z,98163.00
2018-10-17T05:40:14.806Z,98163.00
2018-10-17T05:42:46.531Z,98166.00
2018-10-17T05:45:18.289Z,98166.00
2018-10-17T05:47:49.965Z,98163.00
2018-10-17T05:50:21.922Z,98165.00
2018-10-17T05:52:53.696Z,98166.00
2018-10-17T05:55:25.507Z,98166.00
2018-10-17T05:57:57.658Z,98175.00
2018-10-17T06:00:29.477Z,98179.00
2018-10-17T06:03:01.354Z,98181.00
2018-10-17T06:05:32.985Z,98179.00
2018-10-17T06:08:05.078Z,98173.00
2018-10-17T06:10:36.831Z,98169.00
2018-10-17T06:13:08.552Z,98176.00
2018-10-17T06:15:40.229Z,98175.00
2018-10-17T06:18:11.972Z,98179.00
2018-10-17T06:20:43.741Z,98176.00
2018-10-17T06:23:15.468Z,98179.00
2018-10-17T06:25:47.175Z,98186.00
2018-10-17T06:28:18.967Z,98189.00
2018-10-17T06:30:50.755Z,98185.00
2018-10-17T06:33:22.704Z,98188.00
2018-10-17T06:35:54.390Z,98185.00
2018-10-17T06:38:26.166Z,98189.00
2018-10-17T06:40:58.142Z,98189.00
2018-10-17T06:43:29.855Z,98184.00
2018-10-17T06:46:01.557Z,98184.00
2018-10-17T06:48:33.491Z,98186.00
2018-10-17T06:51:05.394Z,98187.00
2018-10-17T06:53:37.146Z,98184.00
2018-10-17T06:56:09.320Z,98187.00
2018-10-17T06:58:40.960Z,98185.00
2018-10-17T07:01:12.912Z,98188.00
2018-10-17T07:03:44.766Z,98189.00
2018-10-17T07:06:16.491Z,98184.00
2018-10-17T07:08:49.207Z,98186.00
2018-10-17T07:11:21.114Z,98187.00
2018-10-17T07:13:52.934Z,98187.00
2018-10-17T07:16:25.081Z,98191.00
2018-10-17T07:18:56.885Z,98192.00
2018-10-17T07:21:28.749Z,98183.00
2018-10-17T07:24:00.494Z,98186.00
2018-10-17T07:26:32.208Z,98185.00
2018-10-17T07:29:04.041Z,98192.00
2018-10-17T07:31:35.776Z,98194.00
2018-10-17T07:34:07.713Z,98189.00
2018-10-17T07:36:39.573Z,98187.00
2018-10-17T07:39:11.663Z,98190.00
2018-10-17T07:41:43.313Z,98183.00
2018-10-17T07:44:15.162Z,98188.00
2018-10-17T07:46:46.932Z,98186.00
2018-10-17T07:49:18.577Z,98181.00
2018-10-17T07:51:50.439Z,98185.00
2018-10-17T07:54:22.228Z,98191.00
2018-10-17T07:56:53.961Z,98187.00
2018-10-17T07:59:25.734Z,98191.00
2018-10-17T08:01:57.582Z,98190.00
2018-10-17T08:04:29.360Z,98185.00
2018-10-17T08:07:01.129Z,98182.00
2018-10-17T08:09:32.945Z,98185.00
2018-10-17T08:12:04.926Z,98180.00
2018-10-17T08:14:36.903Z,98181.00
2018-10-17T08:17:08.661Z,98180.00
2018-10-17T08:19:40.329Z,98178.00
2018-10-17T08:22:12.083Z,98182.00
2018-10-17T08:24:43.849Z,98186.00
2018-10-17T08:27:15.805Z,98186.00
2018-10-17T08:29:47.638Z,98178.00
2018-10-17T08:32:19.537Z,98174.00
2018-10-17T08:34:51.170Z,98174.00
2018-10-17T08:37:23.339Z,98174.00
2018-10-17T08:39:54.882Z,98169.00
2018-10-17T08:42:26.647Z,98167.00
2018-10-17T08:44:58.334Z,98162.00
2018-10-17T08:47:30.470Z,98165.00
2018-10-17T08:50:02.274Z,98158.00
2018-10-17T08:52:34.118Z,98163.00
2018-10-17T08:55:06.294Z,98165.00
2018-10-17T08:57:38.191Z,98163.00
2018-10-17T09:00:10.484Z,98161.00
2018-10-17T09:02:42.447Z,98159.00
2018-10-17T09:05:14.286Z,98159.00
2018-10-17T09:07:46.245Z,98157.00
2018-10-17T09:10:18.046Z,98155.00
2018-10-17T09:12:49.796Z,98155.00
2018-10-17T09:15:21.689Z,98155.00
2018-10-17T09:17:53.467Z,98149.00
2018-10-17T09:20:25.415Z,98151.00
2018-10-17T09:22:57.171Z,98147.00
2018-10-17T09:25:28.823Z,98147.00
2018-10-17T09:28:00.648Z,98140.00
2018-10-17T09:30:32.470Z,98139.00
2018-10-17T09:33:04.207Z,98142.00
2018-10-17T09:35:35.984Z,98137.00
2018-10-17T09:38:07.929Z,98131.00
2018-10-17T09:40:39.561Z,98129.00
2018-10-17T09:43:11.393Z,98123.00
2018-10-17T09:45:43.186Z,98124.00
2018-10-17T09:48:14.947Z,98128.00
2018-10-17T09:50:46.604Z,98119.00
2018-10-17T09:53:18.392Z,98121.00
2018-10-17T09:55:50.127Z,98112.00
2018-10-17T09:58:21.787Z,98112.00
2018-10-17T10:00:58.479Z,98109.00
2018-10-17T10:03:30.317Z,98103.00
2018-10-17T10:06:02.031Z,98103.00
2018-10-17T10:08:33.729Z,98105.00
2018-10-17T10:11:05.684Z,98100.00
2018-10-17T10:13:37.463Z,98102.00
2018-10-17T10:16:09.146Z,98094.00
2018-10-17T10:18:41.073Z,98094.00
2018-10-17T10:21:12.951Z,98090.00
2018-10-17T10:23:44.903Z,98091.00
2018-10-17T10:26:16.555Z,98087.00
2018-10-17T10:28:48.254Z,98090.00
2018-10-17T10:31:19.968Z,98087.00
2018-10-17T10:33:51.903Z,98081.00
2018-10-17T10:36:23.884Z,98071.00
2018-10-17T10:38:55.771Z,98073.00
2018-10-17T10:41:27.533Z,98068.00
2018-10-17T10:43:59.219Z,98066.00
2018-10-17T10:46:31.033Z,98054.00
2018-10-17T10:49:02.822Z,98049.00
2018-10-17T10:51:34.885Z,98051.00
2018-10-17T10:54:06.667Z,98047.00
2018-10-17T10:56:38.495Z,98048.00
2018-10-17T10:59:10.319Z,98051.00
2018-10-17T11:01:42.122Z,98043.00
2018-10-17T11:04:13.761Z,98038.00
2018-10-17T11:06:45.721Z,98038.00
2018-10-17T11:09:17.375Z,98038.00
2018-10-17T11:11:49.108Z,98037.00
2018-10-17T11:14:20.948Z,98035.00
2018-10-17T11:16:52.778Z,98032.00
2018-10-17T11:19:24.518Z,98025.00
2018-10-17T11:21:56.415Z,98018.00
2018-10-17T11:24:28.316Z,98016.00
2018-10-17T11:27:00.277Z,98015.00
2018-10-17T11:29:32.066Z,98012.00
2018-10-17T11:32:03.884Z,98009.00
2018-10-17T11:34:35.582Z,98003.00
2018-10-17T11:37:07.538Z,97995.00
2018-10-17T11:39:39.286Z,97998.00
2018-10-17T11:42:11.146Z,97987.00
2018-10-17T11:44:42.819Z,97987.00
2018-10-17T11:47:14.626Z,97979.00
2018-10-17T11:49:46.562Z,97979.00
2018-10-17T11:52:18.280Z,97976.00
2018-10-17T11:54:49.972Z,97976.00
2018-10-17T11:57:21.710Z,97974.00
2018-10-17T11:59:53.356Z,97969.00
2018-10-17T12:02:25.230Z,97965.00
2018-10-17T12:04:57.188Z,97963.00
2018-10-17T12:07:28.852Z,97959.00
2018-10-17T12:10:00.626Z,97960.00
2018-10-17T12:12:32.360Z,97954.00
2018-10-17T12:15:04.104Z,97954.00
2018-10-17T12:17:35.870Z,97953.00
2018-10-17T12:20:10.158Z,97952.00
2018-10-17T12:22:42.768Z,97944.00
2018-10-17T12:25:15.110Z,97940.00
2018-10-17T12:27:47.073Z,97934.00
2018-10-17T12:30:18.888Z,97930.00
2018-10-17T12:32:50.647Z,97929.00
2018-10-17T12:35:22.372Z,97927.00
2018-10-17T12:37:54.257Z,97924.00
2018-10-17T12:40:26.082Z,97921.00
2018-10-17T12:42:57.896Z,97913.00
2018-10-17T12:45:29.638Z,97914.00
2018-10-17T12:48:01.520Z,97915.00
2018-10-17T12:50:33.162Z,97912.00
2018-10-17T12:53:05.215Z,97915.00
2018-10-17T12:55:36.835Z,97909.00
2018-10-17T12:58:08.745Z,97906.00
2018-10-17T13:00:40.657Z,97911.00
2018-10-17T13:03:12.359Z,97910.00
2018-10-17T13:05:44.125Z,97907.00
2018-10-17T13:08:16.012Z,97905.00
2018-10-17T13:10:47.737Z,97905.00
2018-10-17T13:13:19.398Z,97902.00
2018-10-17T13:15:51.265Z,97903.00
2018-10-17T13:18:23.010Z,97901.00
2018-10-17T13:20:54.678Z,97899.00
2018-10-17T13:23:26.434Z,97898.00
2018-10-17T13:25:58.082Z,97892.00
2018-10-17T13:28:30.106Z,97889.00
2018-10-17T13:31:02.052Z,97883.00
2018-10-17T13:33:34.010Z,97885.00
2018-10-17T13:36:05.818Z,97875.00
2018-10-17T13:38:37.634Z,97877.00
2018-10-17T13:41:09.701Z,97872.00
2018-10-17T13:43:41.320Z,97870.00
2018-10-17T13:46:12.990Z,97865.00
2018-10-17T13:48:44.925Z,97870.00
2018-10-17T13:51:16.621Z,97867.00
2018-10-17T13:53:48.368Z,97869.00
2018-10-17T13:56:20.040Z,97863.00
2018-10-17T13:58:51.897Z,97864.00
2018-10-17T14:01:23.975Z,97862.00
2018-10-17T14:03:55.829Z,97870.00
2018-10-17T14:06:27.752Z,97862.00
2018-10-17T14:08:59.763Z,97869.00
2018-10-17T14:11:31.551Z,97868.00
2018-10-17T14:14:03.252Z,97871.00
2018-10-17T14:16:35.030Z,97870.00
2018-10-17T14:19:06.811Z,97869.00
2018-10-17T14:21:38.636Z,97867.00
2018-10-17T14:24:10.532Z,97868.00
2018-10-17T14:26:42.274Z,97871.00
2018-10-17T14:29:13.952Z,97867.00
2018-10-17T14:31:45.861Z,97871.00
2018-10-17T14:34:17.521Z,97882.00
2018-10-17T14:36:49.320Z,97879.00
2018-10-17T14:39:21.438Z,97881.00
2018-10-17T14:41:53.030Z,97878.00
2018-10-17T14:44:24.754Z,97879.00
2018-10-17T14:46:56.426Z,97876.00
2018-10-17T14:49:28.294Z,97879.00
2018-10-17T14:51:59.941Z,97878.00
2018-10-17T14:54:31.713Z,97880.00
2018-10-17T14:57:03.635Z,97878.00
2018-10-17T14:59:35.449Z,97880.00
2018-10-17T15:02:07.718Z,97876.00
2018-10-17T15:04:39.457Z,97881.00
2018-10-17T15:07:11.369Z,97877.00
2018-10-17T15:09:43.254Z,97876.00
2018-10-17T15:12:14.999Z,97876.00
2018-10-17T15:14:46.785Z,97873.00
2018-10-17T15:17:18.562Z,97879.00
2018-10-17T15:19:50.290Z,97878.00
2018-10-17T15:22:22.195Z,97873.00
2018-10-17T15:24:53.823Z,97874.00
2018-10-17T15:27:25.579Z,97878.00
2018-10-17T15:29:57.395Z,97884.00
2018-10-17T15:32:29.230Z,97885.00
2018-10-17T15:35:00.970Z,97886.00
2018-10-17T15:37:32.815Z,97888.00
2018-10-17T15:40:04.814Z,97890.00
2018-10-17T15:42:36.641Z,97889.00
2018-10-17T15:45:08.784Z,97891.00
2018-10-17T15:47:40.592Z,97895.00
2018-10-17T15:50:12.433Z,97897.00
2018-10-17T15:52:44.223Z,97896.00
2018-10-17T15:55:15.949Z,97900.00
2018-10-17T15:57:47.635Z,97904.00
2018-10-17T16:00:19.729Z,97899.00
2018-10-17T16:02:51.418Z,97907.00
2018-10-17T16:05:23.292Z,97909.00
2018-10-17T16:07:55.013Z,97908.00
2018-10-17T16:10:26.832Z,97907.00
2018-10-17T16:13:04.378Z,97914.00
2018-10-17T16:15:58.365Z,97916.00
2018-10-17T16:21:52.502Z,97918.00
2018-10-17T16:24:53.467Z,97915.00
2018-10-17T16:27:25.297Z,97923.00
2018-10-17T16:29:57.092Z,97925.00
2018-10-17T16:32:28.950Z,97929.00
2018-10-17T16:35:00.786Z,97925.00
2018-10-17T16:37:32.562Z,97930.00
2018-10-17T16:40:04.355Z,97934.00
2018-10-17T16:42:36.169Z,97941.00
2018-10-17T16:45:09.564Z,97945.00
2018-10-17T16:47:41.724Z,97942.00
2018-10-17T16:50:13.670Z,97945.00
2018-10-17T16:52:45.456Z,97945.00
2018-10-17T16:55:17.319Z,97950.00
2018-10-17T16:57:49.060Z,97953.00
2018-10-17T17:00:20.937Z,97951.00
2018-10-17T17:02:52.708Z,97958.00
2018-10-17T17:05:24.475Z,97959.00
2018-10-17T17:07:56.223Z,97965.00
2018-10-17T17:10:28.081Z,97964.00
2018-10-17T17:12:59.932Z,97970.00
2018-10-17T17:15:31.603Z,97973.00
2018-10-17T17:18:03.329Z,97974.00
2018-10-17T17:20:34.923Z,97977.00
2018-10-17T17:23:06.871Z,97978.00
2018-10-17T17:25:38.545Z,97975.00
2018-10-17T17:28:10.494Z,97982.00
2018-10-17T17:30:42.373Z,97981.00
2018-10-17T17:33:14.283Z,97985.00
2018-10-17T17:35:46.987Z,97980.00
2018-10-17T17:38:18.858Z,97982.00
2018-10-17T17:40:50.639Z,97986.00
2018-10-17T17:43:22.278Z,97987.00
2018-10-17T17:45:54.029Z,97986.00
2018-10-17T17:48:25.806Z,97992.00
2018-10-17T17:50:57.469Z,97999.00
2018-10-17T17:53:29.231Z,97999.00
2018-10-17T17:56:00.988Z,98001.00
2018-10-17T17:58:32.670Z,97999.00
2018-10-17T18:01:04.310Z,98008.00
2018-10-17T18:03:36.052Z,98004.00
2018-10-17T18:06:07.995Z,98009.00
2018-10-17T18:08:39.663Z,98010.00
2018-10-17T18:11:21.581Z,98012.00
2018-10-17T18:13:54.362Z,98014.00
2018-10-17T18:16:26.190Z,98017.00
2018-10-17T18:18:57.857Z,98017.00
2018-10-17T18:21:29.535Z,98017.00
2018-10-17T18:24:01.395Z,98024.00
2018-10-17T18:26:33.141Z,98020.00
2018-10-17T18:29:04.868Z,98026.00
2018-10-17T18:31:36.595Z,98029.00
2018-10-17T18:34:08.543Z,98034.00
2018-10-17T18:36:40.374Z,98042.00
2018-10-17T18:39:12.035Z,98040.00
2018-10-17T18:41:43.693Z,98041.00
2018-10-17T18:44:15.467Z,98042.00
2018-10-17T18:46:47.212Z,98040.00
2018-10-17T18:49:45.505Z,98042.00
2018-10-17T18:52:31.176Z,98040.00
2018-10-17T18:55:18.117Z,98040.00
2018-10-17T18:58:02.179Z,98041.00
2018-10-17T19:00:50.516Z,98039.00
2018-10-17T19:03:35.873Z,98039.00
2018-10-17T19:06:16.381Z,98037.00
2018-10-17T19:08:48.409Z,98042.00
2018-10-17T19:11:20.047Z,98046.00
2018-10-17T19:13:51.895Z,98049.00
2018-10-17T19:16:23.615Z,98055.00
2018-10-17T19:18:55.636Z,98054.00
2018-10-17T19:21:27.408Z,98053.00
2018-10-17T19:24:23.700Z,98054.00
2018-10-17T19:27:23.459Z,98054.00
2018-10-17T19:30:02.663Z,98059.00
2018-10-17T19:32:57.455Z,98062.00
2018-10-17T19:35:45.849Z,98058.00
2018-10-17T19:38:23.664Z,98062.00
2018-10-17T19:41:10.464Z,98067.00
2018-10-17T19:43:58.470Z,98070.00
2018-10-17T19:46:52.735Z,98077.00
2018-10-17T19:49:47.410Z,98075.00
2018-10-17T19:52:41.495Z,98083.00
2018-10-17T19:55:31.017Z,98085.00
2018-10-17T19:58:23.276Z,98086.00
2018-10-17T20:01:08.761Z,98087.00
2018-10-17T20:04:00.365Z,98090.00
2018-10-17T20:06:51.977Z,98084.00
2018-10-17T20:09:36.752Z,98087.00
2018-10-17T20:12:23.357Z,98089.00
2018-10-17T20:15:02.878Z,98087.00
2018-10-17T20:17:46.305Z,98088.00
2018-10-17T20:20:23.403Z,98090.00
2018-10-17T20:23:03.273Z,98084.00
2018-10-17T20:25:43.044Z,98085.00
2018-10-17T20:28:33.789Z,98087.00
2018-10-17T20:31:12.889Z,98086.00
2018-10-17T20:33:44.762Z,98095.00
2018-10-17T20:36:16.611Z,98090.00
2018-10-17T20:38:48.337Z,98086.00
2018-10-17T20:41:20.379Z,98086.00
2018-10-17T20:43:52.214Z,98089.00
2018-10-17T20:46:24.091Z,98083.00
2018-10-17T20:48:57.719Z,98083.00
2018-10-17T20:51:29.464Z,98088.00
2018-10-17T20:54:01.146Z,98098.00
2018-10-17T20:56:32.778Z,98095.00
2018-10-17T20:59:04.671Z,98099.00
2018-10-17T21:01:36.338Z,98097.00
2018-10-17T21:04:08.283Z,98104.00
2018-10-17T21:06:40.208Z,98108.00
2018-10-17T21:09:14.395Z,98103.00
2018-10-17T21:11:46.431Z,98104.00
2018-10-17T21:14:18.072Z,98095.00
2018-10-17T21:16:49.824Z,98102.00
2018-10-17T21:19:21.710Z,98102.00
2018-10-17T21:21:53.568Z,98102.00
2018-10-17T21:24:25.232Z,98107.00
2018-10-17T21:26:57.147Z,98104.00
2018-10-17T21:29:29.164Z,98104.00
2018-10-17T21:32:00.946Z,98107.00
2018-10-17T21:34:32.747Z,98105.00
2018-10-17T21:37:04.532Z,98111.00
2018-10-17T21:39:36.071Z,98107.00
2018-10-17T21:42:08.031Z,98101.00
2018-10-17T21:44:39.698Z,98104.00
2018-10-17T21:47:11.461Z,98102.00
2018-10-17T21:49:43.429Z,98100.00
2018-10-17T21:52:15.072Z,98100.00
2018-10-17T21:54:46.831Z,98102.00
2018-10-17T21:57:18.486Z,98097.00
2018-10-17T21:59:50.255Z,98095.00
2018-10-17T22:02:22.000Z,98095.00
2018-10-17T22:04:53.796Z,98099.00
2018-10-17T22:07:25.639Z,98098.00
2018-10-17T22:09:57.421Z,98095.00
2018-10-17T22:12:29.037Z,98097.00
2018-10-17T22:15:00.597Z,98097.00
2018-10-17T22:17:32.457Z,98098.00
2018-10-17T22:20:04.344Z,98093.00
2018-10-17T22:22:36.089Z,98095.00
2018-10-17T22:25:08.551Z,98099.00
2018-10-17T22:27:40.399Z,98101.00
2018-10-17T22:30:12.370Z,98103.00
2018-10-17T22:32:44.035Z,98101.00
2018-10-17T22:35:15.594Z,98105.00
2018-10-17T22:37:47.496Z,98097.00
2018-10-17T22:40:19.211Z,98098.00
2018-10-17T22:42:50.957Z,98098.00
2018-10-17T22:45:22.723Z,98106.00
2018-10-17T22:47:54.558Z,98110.00
2018-10-17T22:50:26.243Z,98111.00
2018-10-17T22:52:58.102Z,98112.00
2018-10-17T22:55:29.819Z,98117.00
2018-10-17T22:58:01.425Z,98116.00
2018-10-17T23:00:33.264Z,98119.00
2018-10-17T23:03:04.971Z,98118.00
2018-10-17T23:05:36.734Z,98120.00
2018-10-17T23:08:08.798Z,98117.00
2018-10-17T23:10:40.508Z,98121.00
2018-10-17T23:13:12.182Z,98126.00
2018-10-17T23:15:43.827Z,98131.00
2018-10-17T23:18:15.494Z,98133.00
2018-10-17T23:20:47.365Z,98137.00
2018-10-17T23:23:19.125Z,98130.00
2018-10-17T23:25:50.774Z,98134.00
2018-10-17T23:28:22.643Z,98134.00
2018-10-17T23:30:54.403Z,98131.00
2018-10-17T23:33:26.142Z,98135.00
2018-10-17T23:35:58.022Z,98133.00
2018-10-17T23:38:29.664Z,98126.00
2018-10-17T23:41:01.437Z,98128.00
2018-10-17T23:43:33.194Z,98126.00
2018-10-17T23:46:04.983Z,98129.00
2018-10-17T23:48:37.034Z,98128.00
2018-10-17T23:51:08.951Z,98127.00
2018-10-17T23:53:40.744Z,98135.00
2018-10-17T23:56:12.501Z,98128.00
2018-10-17T23:58:44.231Z,98125.00
